Terminal Aerodrome Forecast
Issued by NWS Upton, NY

Home | Current Version | Previous Version | Text Only | Print | Product List | Glossary On
Versions: 1 2 3 4 5 6 7 8 9 10 11 12 13 14 15 16 17 18 19 20 21 22 23 24 25 26 27 28 29 30 31 32 33
287
FTUS41 KOKX 061933 AAA
TAFJFK
TAF AMD
KJFK 061933Z 0620/0724 09020G30KT P6SM OVC010
     FM062100 09018G28KT 6SM -DZ BR OVC010
     FM070000 08011KT 6SM -DZ BR OVC006
     FM070600 07006KT 3SM -DZ BR OVC006
     FM071200 07008KT 5SM BR OVC010
     FM071800 15008KT 5SM BR SCT007 BKN015=

USA.gov is the U.S. government's official web portal to all federal, state and local government web resources and services.